Time,TemperatureF,DewpointF,PressureIn,WindDirection,WindDirectionDegrees,WindSpeedMPH,WindSpeedGustMPH,Humidity,HourlyPrecipIn,Conditions,Clouds,dailyrainin,SoftwareType,DateUTC
2013-12-03 15:53:00,53.0,35.0,29.20,South,180,0.0,0.0,51,-99.99,,,0.00,,2013-12-03 20:53:00,
2013-12-03 16:12:00,53.0,36.0,29.92,South,180,0.0,0.0,52,-99.99,,,0.00,,2013-12-03 21:12:00,
2013-12-03 16:22:00,52.0,36.0,29.92,South,180,0.0,0.0,54,-99.99,,,0.00,,2013-12-03 21:22:00,
2013-12-03 16:44:00,50.0,35.0,29.93,South,180,0.0,0.0,57,-99.99,,,0.00,,2013-12-03 21:44:00,
2013-12-03 16:53:00,49.0,35.0,29.93,South,180,0.0,0.0,59,-99.99,,,0.00,,2013-12-03 21:53:00,
2013-12-03 17:23:00,45.0,34.0,29.95,South,180,0.0,0.0,66,0.00,,,0.00,,2013-12-03 22:23:00,
2013-12-03 17:53:00,42.0,34.0,29.96,South,180,0.0,0.0,73,0.00,,,-99.99,,2013-12-03 22:53:00,
2013-12-03 18:12:00,41.0,34.0,29.96,South,180,0.0,0.0,76,0.00,,,-99.99,,2013-12-03 23:12:00,
2013-12-03 18:22:00,40.0,33.0,29.96,South,180,0.0,0.0,76,0.00,,,-99.99,,2013-12-03 23:22:00,
2013-12-03 18:42:00,40.0,34.0,29.96,South,180,0.0,0.0,79,0.00,,,-99.99,,2013-12-03 23:42:00,
2013-12-03 18:52:00,40.0,33.0,29.97,South,180,0.0,0.0,77,0.00,,,-99.99,,2013-12-03 23:52:00,
2013-12-03 19:11:00,39.0,34.0,29.98,South,180,0.0,0.0,81,0.00,,,-99.99,,2013-12-04 00:11:00,
2013-12-03 19:22:00,38.0,33.0,29.98,South,180,0.0,0.0,81,0.00,,,-99.99,,2013-12-04 00:22:00,
2013-12-03 19:42:00,37.0,32.0,29.98,South,180,0.0,0.0,83,0.00,,,-99.99,,2013-12-04 00:42:00,
2013-12-03 19:52:00,37.0,33.0,29.99,South,180,0.0,0.0,84,0.00,,,-99.99,,2013-12-04 00:52:00,
2013-12-03 20:11:00,36.0,33.0,29.99,South,180,0.0,0.0,87,0.00,,,-99.99,,2013-12-04 01:11:00,
2013-12-03 20:22:00,35.0,32.0,29.99,South,180,0.0,0.0,88,0.00,,,-99.99,,2013-12-04 01:22:00,
2013-12-03 20:42:00,35.0,32.0,29.99,South,180,0.0,0.0,89,0.00,,,-99.99,,2013-12-04 01:42:00,
2013-12-03 20:52:00,35.0,32.0,29.99,South,180,0.0,0.0,90,0.00,,,-99.99,,2013-12-04 01:52:00,
2013-12-03 21:11:00,34.0,31.0,29.99,South,180,0.0,0.0,90,0.00,,,-99.99,,2013-12-04 02:11:00,
2013-12-03 21:22:00,34.0,32.0,29.99,South,180,0.0,0.0,91,0.00,,,-99.99,,2013-12-04 02:22:00,
2013-12-03 21:42:00,34.0,32.0,29.99,South,180,0.0,0.0,92,0.00,,,-99.99,,2013-12-04 02:42:00,
2013-12-03 21:52:00,34.0,32.0,30.00,South,180,0.0,0.0,92,0.00,,,-99.99,,2013-12-04 02:52:00,
2013-12-03 22:12:00,33.0,31.0,30.00,South,180,0.0,0.0,93,0.00,,,-99.99,,2013-12-04 03:12:00,
2013-12-03 22:22:00,33.0,31.0,30.01,South,180,0.0,0.0,93,0.00,,,-99.99,,2013-12-04 03:22:00,
2013-12-03 22:43:00,33.0,31.0,30.01,South,180,0.0,0.0,94,0.00,,,-99.99,,2013-12-04 03:43:00,
2013-12-03 22:54:00,33.0,32.0,30.01,South,180,0.0,0.0,95,0.00,,,-99.99,,2013-12-04 03:54:00,
2013-12-03 23:13:00,34.0,33.0,30.01,South,180,0.0,0.0,96,0.00,,,-99.99,,2013-12-04 04:13:00,
2013-12-03 23:24:00,34.0,33.0,30.02,South,180,0.0,0.0,95,0.00,,,-99.99,,2013-12-04 04:24:00,
2013-12-03 23:52:00,32.0,31.0,30.02,South,180,0.0,0.0,95,0.00,,,-99.99,,2013-12-04 04:52:00,